createdAt,value
2022-08-05T00:00:26.130Z,2.67
2022-08-05T00:02:54.796Z,2.47
2022-08-05T00:06:01.720Z,2.72
2022-08-05T00:08:35.163Z,2.40
2022-08-05T00:11:01.690Z,2.38
2022-08-05T00:13:39.575Z,2.72
2022-08-05T00:16:10.925Z,2.40
2022-08-05T00:18:42.418Z,2.58
2022-08-05T00:21:14.565Z,2.40
2022-08-05T00:23:45.973Z,2.50
2022-08-05T00:26:17.936Z,2.40
2022-08-05T00:28:49.276Z,2.42
2022-08-05T00:31:41.495Z,2.63
2022-08-05T00:34:56.489Z,2.30
2022-08-05T00:37:10.519Z,2.60
2022-08-05T00:39:57.100Z,2.25
2022-08-05T00:42:33.238Z,2.90
2022-08-05T00:45:03.860Z,2.35
2022-08-05T00:47:56.601Z,2.47
2022-08-05T00:50:20.875Z,2.72
2022-08-05T00:52:49.509Z,2.80
2022-08-05T00:55:18.915Z,2.72
2022-08-05T00:57:55.508Z,2.85
2022-08-05T01:00:29.331Z,2.80
2022-08-05T01:02:59.852Z,2.47
2022-08-05T01:05:28.888Z,2.92
2022-08-05T01:08:40.070Z,2.92
2022-08-05T01:10:52.879Z,2.80
2022-08-05T01:13:27.385Z,2.72
2022-08-05T01:16:26.357Z,2.55
2022-08-05T01:19:01.681Z,2.60
2022-08-05T01:21:58.376Z,2.92
2022-08-05T01:24:49.323Z,2.97
2022-08-05T01:27:33.020Z,2.90
2022-08-05T01:30:05.610Z,2.42
2022-08-05T01:32:48.563Z,2.72
2022-08-05T01:35:52.081Z,2.67
2022-08-05T01:38:09.873Z,3.78
2022-08-05T01:40:55.454Z,2.90
2022-08-05T01:43:25.162Z,2.78
2022-08-05T01:45:56.999Z,3.28
2022-08-05T01:48:27.308Z,2.88
2022-08-05T01:50:57.998Z,3.20
2022-08-05T01:53:55.034Z,3.65
2022-08-05T01:58:29.709Z,3.35
2022-08-05T01:59:12.899Z,3.20
2022-08-05T02:01:44.769Z,3.30
2022-08-05T02:04:17.862Z,4.07
2022-08-05T02:06:46.375Z,3.22
2022-08-05T02:09:16.577Z,3.25
2022-08-05T02:11:54.512Z,3.50
2022-08-05T02:14:32.065Z,3.40
2022-08-05T02:17:08.957Z,3.50
2022-08-05T02:20:02.120Z,3.30
2022-08-05T02:22:34.449Z,3.20
2022-08-05T02:25:06.326Z,3.70
2022-08-05T02:27:59.036Z,3.42
2022-08-05T02:30:36.623Z,3.40
2022-08-05T02:33:09.052Z,3.60
2022-08-05T02:35:50.976Z,3.90
2022-08-05T02:38:35.374Z,3.42
2022-08-05T02:41:06.463Z,3.40
2022-08-05T02:44:02.291Z,3.70
2022-08-05T02:46:35.277Z,4.03
2022-08-05T02:49:07.186Z,3.80
2022-08-05T02:52:02.944Z,3.95
2022-08-05T02:54:35.814Z,3.95
2022-08-05T02:57:10.346Z,3.78
2022-08-05T02:59:57.651Z,3.10
2022-08-05T03:02:32.358Z,3.92
2022-08-05T03:05:03.304Z,3.53
2022-08-05T03:08:01.396Z,3.40
2022-08-05T03:10:24.857Z,4.95
2022-08-05T03:12:54.998Z,3.75
2022-08-05T03:15:24.296Z,3.65
2022-08-05T03:17:55.647Z,4.70
2022-08-05T03:20:26.460Z,3.67
2022-08-05T03:22:58.041Z,3.47
2022-08-05T03:25:32.442Z,3.80
2022-08-05T03:28:18.819Z,3.63
2022-08-05T03:30:50.884Z,3.65
2022-08-05T03:33:19.661Z,3.58
2022-08-05T03:35:50.373Z,3.50
2022-08-05T03:40:48.792Z,3.08
2022-08-05T03:44:09.570Z,3.30
2022-08-05T03:46:09.802Z,3.50
2022-08-05T03:48:38.717Z,3.92
2022-08-05T03:52:39.131Z,3.72
2022-08-05T03:56:01.121Z,4.10
2022-08-05T03:57:00.119Z,3.92
2022-08-05T03:59:47.516Z,4.00
2022-08-05T04:02:38.374Z,4.97
2022-08-05T04:05:10.408Z,5.03
2022-08-05T04:07:57.375Z,4.72
2022-08-05T04:10:32.164Z,4.53
2022-08-05T04:13:06.735Z,4.63
2022-08-05T04:15:36.131Z,4.05
2022-08-05T04:18:06.847Z,4.72
2022-08-05T04:20:36.231Z,4.32
2022-08-05T04:23:06.245Z,4.28
2022-08-05T04:25:57.805Z,3.65
2022-08-05T04:28:31.629Z,3.60
2022-08-05T04:31:01.578Z,4.45
2022-08-05T04:34:18.609Z,3.67
2022-08-05T04:36:46.304Z,3.72
2022-08-05T04:39:11.108Z,3.67
2022-08-05T04:41:41.431Z,3.92
2022-08-05T04:44:10.067Z,3.78
2022-08-05T04:46:39.289Z,3.83
2022-08-05T04:49:12.395Z,3.33
2022-08-05T04:51:43.987Z,4.00
2022-08-05T04:54:14.912Z,4.07
2022-08-05T04:56:43.615Z,4.00
2022-08-05T04:59:21.721Z,3.60
2022-08-05T05:02:08.263Z,3.75
2022-08-05T05:04:44.082Z,3.47
2022-08-05T05:07:17.144Z,3.47
2022-08-05T05:09:47.488Z,3.70
2022-08-05T05:12:15.910Z,4.00
2022-08-05T05:14:49.431Z,3.55
2022-08-05T05:17:23.758Z,3.17
2022-08-05T05:19:56.484Z,3.30
2022-08-05T05:22:26.557Z,3.08
2022-08-05T05:25:00.104Z,2.78
2022-08-05T05:27:41.791Z,3.08
2022-08-05T05:30:30.627Z,3.20
2022-08-05T05:33:08.879Z,2.70
2022-08-05T05:35:45.282Z,2.60
2022-08-05T05:38:14.190Z,2.67
2022-08-05T05:40:49.846Z,2.80
2022-08-05T05:43:22.406Z,2.70
2022-08-05T05:46:15.692Z,2.60
2022-08-05T05:48:45.949Z,2.70
2022-08-05T05:51:20.381Z,2.50
2022-08-05T05:53:57.960Z,2.53
2022-08-05T05:56:32.407Z,2.53
2022-08-05T05:59:05.060Z,2.58
2022-08-05T06:01:38.219Z,3.10
2022-08-05T06:04:12.182Z,3.08
2022-08-05T06:11:24.949Z,2.58
2022-08-05T06:18:07.752Z,2.40
2022-08-05T06:20:36.102Z,2.85
2022-08-05T06:23:04.437Z,2.28
2022-08-05T06:26:12.160Z,2.85
2022-08-05T06:28:22.057Z,2.25
2022-08-05T06:30:52.082Z,3.05
2022-08-05T06:33:33.367Z,2.90
2022-08-05T06:36:10.486Z,3.00
2022-08-05T06:38:38.874Z,3.10
2022-08-05T06:41:15.391Z,3.13
2022-08-05T06:43:57.392Z,2.63
2022-08-05T06:46:30.202Z,2.65
2022-08-05T06:49:01.715Z,2.65
2022-08-05T06:51:31.446Z,2.80
2022-08-05T06:54:02.276Z,2.72
2022-08-05T06:56:34.795Z,2.80
2022-08-05T06:59:08.326Z,3.17
2022-08-05T07:01:40.766Z,2.60
2022-08-05T07:04:14.072Z,2.97
2022-08-05T07:06:42.563Z,2.97
2022-08-05T07:09:10.904Z,2.47
2022-08-05T07:11:39.939Z,2.20
2022-08-05T07:14:29.284Z,2.78
2022-08-05T07:18:01.761Z,2.90
2022-08-05T07:22:42.776Z,2.72
2022-08-05T07:25:53.811Z,2.97
2022-08-05T07:28:07.286Z,2.30
2022-08-05T07:30:40.191Z,2.78
2022-08-05T07:33:16.102Z,2.53
2022-08-05T07:36:04.594Z,2.60
2022-08-05T07:38:43.086Z,2.35
2022-08-05T07:42:12.940Z,2.83
2022-08-05T07:44:18.583Z,2.47
2022-08-05T07:46:48.469Z,2.67
2022-08-05T07:49:18.474Z,2.20
2022-08-05T07:51:53.575Z,2.22
2022-08-05T07:54:30.866Z,2.60
2022-08-05T07:57:22.695Z,2.25
2022-08-05T07:59:50.686Z,2.20
2022-08-05T08:02:19.572Z,2.65
2022-08-05T08:04:55.609Z,2.15
2022-08-05T08:07:28.414Z,2.33
2022-08-05T08:10:04.378Z,2.20
2022-08-05T08:12:48.851Z,3.00
2022-08-05T08:16:33.538Z,2.13
2022-08-05T08:18:14.263Z,1.90
2022-08-05T08:21:02.179Z,2.17
2022-08-05T08:24:02.488Z,2.30
2022-08-05T08:26:26.976Z,2.10
2022-08-05T08:29:22.266Z,2.35
2022-08-05T08:31:48.348Z,2.17
2022-08-05T08:34:16.938Z,2.05
2022-08-05T08:36:54.763Z,2.17
2022-08-05T08:39:26.540Z,2.20
2022-08-05T08:41:58.750Z,2.00
2022-08-05T08:45:21.422Z,2.20
2022-08-05T08:52:01.753Z,2.40
2022-08-05T08:53:54.822Z,2.30
2022-08-05T08:56:26.981Z,2.00
2022-08-05T08:58:59.316Z,2.05
2022-08-05T09:01:29.550Z,2.20
2022-08-05T09:03:58.623Z,2.17
2022-08-05T09:06:29.572Z,2.00
2022-08-05T09:08:59.785Z,2.00
2022-08-05T09:11:53.444Z,2.22
2022-08-05T09:14:56.769Z,2.20
2022-08-05T09:17:09.522Z,2.17
2022-08-05T09:20:02.251Z,2.38
2022-08-05T09:23:18.967Z,1.85
2022-08-05T09:26:02.157Z,2.30
2022-08-05T09:28:35.070Z,2.30
2022-08-05T09:31:22.459Z,2.55
2022-08-05T09:33:56.692Z,2.38
2022-08-05T09:36:27.688Z,1.85
2022-08-05T09:39:18.514Z,2.22
2022-08-05T09:41:58.488Z,2.47
2022-08-05T09:44:50.424Z,2.00
2022-08-05T09:47:21.336Z,1.80
2022-08-05T09:50:00.951Z,2.00
2022-08-05T09:52:33.709Z,2.33
2022-08-05T09:55:06.334Z,1.92
2022-08-05T09:57:39.449Z,1.95
2022-08-05T10:00:13.041Z,2.35
2022-08-05T10:02:43.973Z,1.70
2022-08-05T10:05:14.774Z,2.13
2022-08-05T10:08:10.421Z,2.10
2022-08-05T10:10:40.830Z,2.15
2022-08-05T10:13:10.157Z,2.00
2022-08-05T10:15:41.474Z,2.53
2022-08-05T10:18:16.777Z,2.13
2022-08-05T10:20:48.432Z,2.05
2022-08-05T10:23:34.126Z,2.05
2022-08-05T10:26:13.975Z,2.10
2022-08-05T10:28:44.901Z,2.05
2022-08-05T10:32:52.562Z,2.03
2022-08-05T10:34:07.882Z,2.10
2022-08-05T10:36:38.427Z,2.55
2022-08-05T10:39:15.287Z,1.92
2022-08-05T10:42:01.340Z,1.95
2022-08-05T10:44:33.108Z,2.15
2022-08-05T10:47:26.817Z,2.05
2022-08-05T10:50:32.838Z,2.25
2022-08-05T10:52:58.472Z,2.00
2022-08-05T10:55:28.409Z,1.90
2022-08-05T10:58:11.623Z,2.30
2022-08-05T11:00:48.530Z,2.40
2022-08-05T11:03:27.119Z,2.08
2022-08-05T11:06:15.813Z,1.83
2022-08-05T11:09:24.397Z,1.77
2022-08-05T11:12:50.860Z,2.38
2022-08-05T11:16:00.779Z,1.90
2022-08-05T11:18:29.949Z,2.13
2022-08-05T11:20:59.221Z,2.47
2022-08-05T11:23:33.378Z,2.47
2022-08-05T11:26:29.248Z,1.92
2022-08-05T11:29:13.089Z,1.75
2022-08-05T11:32:14.718Z,2.05
2022-08-05T11:34:47.614Z,2.22
2022-08-05T11:38:28.066Z,2.08
2022-08-05T11:41:34.734Z,2.42
2022-08-05T11:44:05.628Z,2.05
2022-08-05T11:47:10.196Z,2.05
2022-08-05T11:49:27.054Z,2.55
2022-08-05T11:51:57.922Z,1.95
2022-08-05T11:54:33.400Z,2.28
2022-08-05T11:57:08.520Z,2.15
2022-08-05T11:59:52.553Z,2.30
2022-08-05T12:02:30.402Z,2.28
2022-08-05T12:05:01.447Z,1.77
2022-08-05T12:08:08.420Z,2.00
2022-08-05T12:10:38.621Z,2.22
2022-08-05T12:13:16.514Z,2.00
2022-08-05T12:15:49.698Z,2.15
2022-08-05T12:18:32.466Z,2.20
2022-08-05T12:21:11.789Z,2.30
2022-08-05T12:23:47.739Z,2.22
2022-08-05T12:26:17.913Z,2.20
2022-08-05T12:28:47.218Z,2.10
2022-08-05T12:31:23.198Z,2.55
2022-08-05T12:34:01.528Z,2.25
2022-08-05T12:36:32.363Z,2.22
2022-08-05T12:39:02.993Z,2.22
2022-08-05T12:41:36.281Z,1.85
2022-08-05T12:44:14.611Z,2.20
2022-08-05T12:47:02.708Z,2.05
2022-08-05T12:50:05.336Z,2.03
2022-08-05T12:52:37.773Z,2.03
2022-08-05T12:55:22.689Z,1.88
2022-08-05T12:58:51.066Z,2.05
2022-08-05T13:02:00.257Z,2.10
2022-08-05T13:03:39.006Z,2.25
2022-08-05T13:06:16.083Z,1.90
2022-08-05T13:08:52.266Z,2.00
2022-08-05T13:12:00.019Z,2.00
2022-08-05T13:14:35.900Z,2.03
2022-08-05T13:17:10.571Z,2.33
2022-08-05T13:19:52.120Z,2.10
2022-08-05T13:22:29.201Z,2.20
2022-08-05T13:25:00.686Z,1.65
2022-08-05T13:27:38.534Z,1.83
2022-08-05T13:30:34.285Z,2.10
2022-08-05T13:33:01.088Z,2.10
2022-08-05T13:35:43.179Z,1.98
2022-08-05T13:38:28.034Z,2.05
2022-08-05T13:41:05.171Z,2.03
2022-08-05T13:43:43.603Z,2.03
2022-08-05T13:46:16.324Z,1.98
2022-08-05T13:49:01.032Z,2.03
2022-08-05T13:51:40.167Z,2.13
2022-08-05T13:54:12.042Z,2.58
2022-08-05T13:56:44.885Z,2.42
2022-08-05T13:59:23.827Z,2.08
2022-08-05T14:01:57.573Z,2.28
2022-08-05T14:04:51.058Z,1.90
2022-08-05T14:07:25.411Z,1.77
2022-08-05T14:10:18.499Z,2.13
2022-08-05T14:12:48.668Z,2.45
2022-08-05T14:16:07.070Z,2.20
2022-08-05T14:18:15.262Z,1.77
2022-08-05T14:20:48.160Z,1.92
2022-08-05T14:23:25.145Z,2.10
2022-08-05T14:25:57.889Z,1.67
2022-08-05T14:28:28.196Z,2.00
2022-08-05T14:30:58.920Z,2.10
2022-08-05T14:33:27.448Z,1.73
2022-08-05T14:36:15.822Z,2.10
2022-08-05T14:38:50.226Z,2.25
2022-08-05T14:41:19.396Z,1.75
2022-08-05T14:44:00.011Z,2.65
2022-08-05T14:46:35.616Z,2.20
2022-08-05T14:49:07.231Z,2.00
2022-08-05T14:51:37.404Z,2.05
2022-08-05T14:54:27.724Z,2.30
2022-08-05T14:56:55.197Z,2.42
2022-08-05T14:59:23.809Z,2.22
2022-08-05T15:01:53.989Z,2.20
2022-08-05T15:04:23.278Z,2.10
2022-08-05T15:06:55.849Z,3.45
2022-08-05T15:09:52.026Z,2.10
2022-08-05T15:12:16.574Z,2.38
2022-08-05T15:14:50.345Z,1.98
2022-08-05T15:17:46.160Z,1.92
2022-08-05T15:20:17.235Z,2.30
2022-08-05T15:22:54.386Z,2.10
2022-08-05T15:25:41.032Z,2.40
2022-08-05T15:28:13.419Z,2.28
2022-08-05T15:30:43.799Z,2.17
2022-08-05T15:33:56.545Z,2.08
2022-08-05T15:36:05.124Z,1.85
2022-08-05T15:38:40.888Z,2.03
2022-08-05T15:41:22.859Z,2.00
2022-08-05T15:43:54.863Z,1.95
2022-08-05T15:46:24.749Z,2.22
2022-08-05T15:49:01.001Z,2.53
2022-08-05T15:52:04.179Z,2.33
2022-08-05T15:54:19.213Z,2.30
2022-08-05T15:56:47.751Z,2.33
2022-08-05T15:59:21.934Z,1.95
2022-08-05T16:01:53.243Z,2.03
2022-08-05T16:04:25.425Z,2.35
2022-08-05T16:06:55.718Z,2.08
2022-08-05T16:09:24.894Z,2.50
2022-08-05T16:11:53.925Z,2.17
2022-08-05T16:14:22.816Z,2.28
2022-08-05T16:16:51.573Z,2.00
2022-08-05T16:20:03.254Z,2.10
2022-08-05T16:22:10.471Z,2.00
2022-08-05T16:24:51.308Z,2.20
2022-08-05T16:27:46.764Z,2.25
2022-08-05T16:30:23.336Z,2.20
2022-08-05T16:32:58.627Z,2.35
2022-08-05T16:35:32.488Z,2.10
2022-08-05T16:38:24.326Z,2.42
2022-08-05T16:41:00.577Z,2.55
2022-08-05T16:43:31.503Z,2.90
2022-08-05T16:46:07.518Z,2.47
2022-08-05T16:48:49.444Z,2.40
2022-08-05T16:51:17.879Z,2.33
2022-08-05T16:54:06.270Z,2.33
2022-08-05T16:56:37.064Z,2.95
2022-08-05T16:59:10.363Z,3.17
2022-08-05T17:01:53.802Z,2.83
2022-08-05T17:04:26.398Z,2.78
2022-08-05T17:06:56.941Z,2.80
2022-08-05T17:09:30.387Z,2.80
2022-08-05T17:12:08.079Z,2.70
2022-08-05T17:14:40.292Z,2.50
2022-08-05T17:17:15.052Z,2.40
2022-08-05T17:19:46.159Z,3.00
2022-08-05T17:22:24.832Z,3.20
2022-08-05T17:24:57.795Z,3.42
2022-08-05T17:27:34.270Z,2.72
2022-08-05T17:30:03.287Z,2.97
2022-08-05T17:32:33.850Z,2.72
2022-08-05T17:35:04.109Z,2.83
2022-08-05T17:37:40.126Z,2.95
2022-08-05T17:40:14.493Z,2.90
2022-08-05T17:42:50.752Z,2.40
2022-08-05T17:45:21.917Z,2.97
2022-08-05T17:47:54.631Z,2.67
2022-08-05T17:50:28.488Z,2.90
2022-08-05T17:53:00.199Z,2.72
2022-08-05T17:55:37.548Z,2.55
2022-08-05T17:58:09.691Z,2.85
2022-08-05T18:00:40.866Z,2.47
2022-08-05T18:03:24.146Z,2.60
2022-08-05T18:06:06.074Z,3.45
2022-08-05T18:08:44.460Z,2.83
2022-08-05T18:11:24.793Z,2.65
2022-08-05T18:14:04.400Z,2.95
2022-08-05T18:16:49.609Z,2.70
2022-08-05T18:19:22.806Z,3.53
2022-08-05T18:22:08.541Z,2.80
2022-08-05T18:24:40.218Z,2.90
2022-08-05T18:27:12.699Z,2.72
2022-08-05T18:29:53.593Z,2.50
2022-08-05T18:32:28.457Z,2.55
2022-08-05T18:34:59.045Z,2.70
2022-08-05T18:37:33.963Z,2.70
2022-08-05T18:41:50.581Z,2.70
2022-08-05T18:42:59.902Z,3.20
2022-08-05T18:45:41.028Z,2.97
2022-08-05T18:48:11.333Z,3.10
2022-08-05T18:52:02.971Z,3.50
2022-08-05T18:53:51.954Z,2.97
2022-08-05T18:56:21.528Z,3.17
2022-08-05T18:58:54.716Z,3.17
2022-08-05T19:01:47.798Z,3.40
2022-08-05T19:04:24.062Z,2.80
2022-08-05T19:06:53.527Z,2.75
2022-08-05T19:09:22.282Z,3.45
2022-08-05T19:12:00.781Z,3.33
2022-08-05T19:14:44.808Z,3.22
2022-08-05T19:17:20.568Z,3.30
2022-08-05T19:19:50.573Z,3.30
2022-08-05T19:22:27.424Z,3.55
2022-08-05T19:25:00.805Z,3.38
2022-08-05T19:27:31.093Z,3.78
2022-08-05T19:30:03.001Z,3.63
2022-08-05T19:32:32.462Z,3.15
2022-08-05T19:35:06.429Z,3.58
2022-08-05T19:38:04.592Z,3.53
2022-08-05T19:40:24.324Z,3.75
2022-08-05T19:43:04.988Z,3.50
2022-08-05T19:45:36.974Z,3.22
2022-08-05T19:48:06.518Z,4.07
2022-08-05T19:50:36.732Z,3.80
2022-08-05T19:53:10.539Z,3.83
2022-08-05T19:56:15.522Z,3.35
2022-08-05T19:58:29.970Z,3.58
2022-08-05T20:01:00.331Z,3.60
2022-08-05T20:03:40.501Z,3.80
2022-08-05T20:06:15.659Z,4.00
2022-08-05T20:08:59.848Z,3.90
2022-08-05T20:11:34.539Z,4.43
2022-08-05T20:14:12.728Z,3.85
2022-08-05T20:16:44.196Z,3.85
2022-08-05T20:19:12.653Z,3.72
2022-08-05T20:21:43.450Z,4.20
2022-08-05T20:24:14.440Z,3.92
2022-08-05T20:26:44.577Z,3.88
2022-08-05T20:29:26.833Z,4.32
2022-08-05T20:31:58.290Z,3.97
2022-08-05T20:34:28.126Z,4.45
2022-08-05T20:36:56.565Z,4.20
2022-08-05T20:39:25.085Z,4.38
2022-08-05T20:42:04.557Z,4.00
2022-08-05T20:44:37.729Z,4.25
2022-08-05T20:47:08.368Z,3.30
2022-08-05T20:49:39.927Z,3.55
2022-08-05T20:52:10.500Z,4.03
2022-08-05T20:54:59.591Z,3.97
2022-08-05T20:57:42.763Z,4.03
2022-08-05T21:00:41.502Z,3.85
2022-08-05T21:03:08.001Z,3.67
2022-08-05T21:05:53.969Z,4.43
2022-08-05T21:08:28.106Z,3.60
2022-08-05T21:11:10.249Z,3.70
2022-08-05T21:13:55.823Z,3.70
2022-08-05T21:16:29.641Z,3.85
2022-08-05T21:19:01.383Z,3.65
2022-08-05T21:21:39.095Z,3.67
2022-08-05T21:24:12.511Z,3.80
2022-08-05T21:26:44.054Z,3.53
2022-08-05T21:29:16.834Z,3.22
2022-08-05T21:31:45.365Z,3.83
2022-08-05T21:34:18.940Z,3.42
2022-08-05T21:36:49.333Z,3.67
2022-08-05T21:39:26.535Z,3.70
2022-08-05T21:42:02.160Z,4.00
2022-08-05T21:44:31.770Z,3.65
2022-08-05T21:47:00.929Z,3.03
2022-08-05T21:49:56.815Z,4.20
2022-08-05T21:52:27.829Z,3.85
2022-08-05T21:54:57.596Z,3.45
2022-08-05T21:57:34.984Z,3.42
2022-08-05T22:00:06.092Z,3.63
2022-08-05T22:02:35.764Z,3.75
2022-08-05T22:05:09.026Z,4.10
2022-08-05T22:07:39.741Z,4.00
2022-08-05T22:10:26.976Z,3.85
2022-08-05T22:12:57.115Z,3.50
2022-08-05T22:16:04.680Z,3.83
2022-08-05T22:18:15.294Z,3.88
2022-08-05T22:20:51.642Z,4.30
2022-08-05T22:24:00.865Z,4.15
2022-08-05T22:26:40.823Z,3.47
2022-08-05T22:29:09.304Z,3.85
2022-08-05T22:31:44.854Z,3.97
2022-08-05T22:34:25.585Z,4.28
2022-08-05T22:36:59.013Z,3.97
2022-08-05T22:39:33.107Z,3.63
2022-08-05T22:42:09.720Z,3.95
2022-08-05T22:44:42.638Z,4.38
2022-08-05T22:47:29.441Z,4.25
2022-08-05T22:50:17.985Z,4.10
2022-08-05T22:52:49.363Z,3.63
2022-08-05T22:55:21.112Z,3.97
2022-08-05T22:57:50.454Z,4.00
2022-08-05T23:00:20.895Z,3.55
2022-08-05T23:02:50.561Z,3.97
2022-08-05T23:05:22.058Z,4.00
2022-08-05T23:07:52.441Z,4.00
2022-08-05T23:10:23.948Z,4.57
2022-08-05T23:12:54.953Z,4.10
2022-08-05T23:15:27.080Z,4.03
2022-08-05T23:18:01.636Z,4.38
2022-08-05T23:20:32.503Z,4.20
2022-08-05T23:23:03.502Z,4.18
2022-08-05T23:25:53.573Z,4.45
2022-08-05T23:28:22.990Z,3.60
2022-08-05T23:30:53.623Z,4.30
2022-08-05T23:34:02.730Z,4.22
2022-08-05T23:36:13.560Z,4.03
2022-08-05T23:38:43.973Z,3.85
2022-08-05T23:41:13.127Z,4.50
2022-08-05T23:44:05.250Z,4.45
2022-08-05T23:46:30.383Z,3.83
2022-08-05T23:49:01.958Z,4.35
2022-08-05T23:52:02.777Z,4.25
2022-08-05T23:54:38.505Z,4.45
2022-08-05T23:57:08.526Z,3.88
